sensor_id;sensor_type;location;lat;lon;timestamp;P1;durP1;ratioP1;P2;durP2;ratioP2
70707;SDS011;58277;47.316;18.908;2023-02-01T00:00:34;3.58;;;1.48;;
70707;SDS011;58277;47.316;18.908;2023-02-01T00:02:57;3.53;;;0.95;;
70707;SDS011;58277;47.316;18.908;2023-02-01T00:05:19;5.55;;;1.38;;
70707;SDS011;58277;47.316;18.908;2023-02-01T00:07:42;4.03;;;1.20;;
70707;SDS011;58277;47.316;18.908;2023-02-01T00:10:05;2.92;;;1.40;;
70707;SDS011;58277;47.316;18.908;2023-02-01T00:12:28;2.95;;;1.30;;
70707;SDS011;58277;47.316;18.908;2023-02-01T00:14:51;3.55;;;1.15;;
70707;SDS011;58277;47.316;18.908;2023-02-01T00:17:14;5.00;;;1.67;;
70707;SDS011;58277;47.316;18.908;2023-02-01T00:19:37;3.50;;;1.33;;
70707;SDS011;58277;47.316;18.908;2023-02-01T00:22:00;4.20;;;1.30;;
70707;SDS011;58277;47.316;18.908;2023-02-01T00:24:23;4.07;;;1.33;;
70707;SDS011;58277;47.316;18.908;2023-02-01T00:26:45;4.70;;;1.27;;
70707;SDS011;58277;47.316;18.908;2023-02-01T00:29:16;3.45;;;1.33;;
70707;SDS011;58277;47.316;18.908;2023-02-01T00:31:40;3.30;;;1.10;;
70707;SDS011;58277;47.316;18.908;2023-02-01T00:34:04;4.22;;;1.10;;
70707;SDS011;58277;47.316;18.908;2023-02-01T00:36:26;3.83;;;1.40;;
70707;SDS011;58277;47.316;18.908;2023-02-01T00:38:50;5.22;;;1.40;;
70707;SDS011;58277;47.316;18.908;2023-02-01T00:41:17;5.40;;;1.60;;
70707;SDS011;58277;47.316;18.908;2023-02-01T00:43:41;3.70;;;1.50;;
70707;SDS011;58277;47.316;18.908;2023-02-01T00:46:04;4.95;;;1.27;;
70707;SDS011;58277;47.316;18.908;2023-02-01T00:48:27;3.80;;;1.42;;
70707;SDS011;58277;47.316;18.908;2023-02-01T00:50:50;7.13;;;1.50;;
70707;SDS011;58277;47.316;18.908;2023-02-01T00:53:13;4.40;;;1.60;;
70707;SDS011;58277;47.316;18.908;2023-02-01T00:55:35;4.73;;;1.60;;
70707;SDS011;58277;47.316;18.908;2023-02-01T00:57:58;6.47;;;1.73;;
70707;SDS011;58277;47.316;18.908;2023-02-01T01:00:22;5.53;;;2.00;;
70707;SDS011;58277;47.316;18.908;2023-02-01T01:02:45;6.07;;;1.63;;
70707;SDS011;58277;47.316;18.908;2023-02-01T01:05:08;4.68;;;1.60;;
70707;SDS011;58277;47.316;18.908;2023-02-01T01:07:32;6.33;;;1.60;;
70707;SDS011;58277;47.316;18.908;2023-02-01T01:09:54;3.67;;;1.35;;
70707;SDS011;58277;47.316;18.908;2023-02-01T01:12:17;4.78;;;1.38;;
70707;SDS011;58277;47.316;18.908;2023-02-01T01:14:42;3.85;;;1.20;;
70707;SDS011;58277;47.316;18.908;2023-02-01T01:17:04;3.42;;;1.38;;
70707;SDS011;58277;47.316;18.908;2023-02-01T01:19:27;3.80;;;1.60;;
70707;SDS011;58277;47.316;18.908;2023-02-01T01:21:49;5.97;;;1.70;;
70707;SDS011;58277;47.316;18.908;2023-02-01T01:24:12;3.45;;;1.23;;
70707;SDS011;58277;47.316;18.908;2023-02-01T01:26:35;3.28;;;1.30;;
70707;SDS011;58277;47.316;18.908;2023-02-01T01:28:58;3.05;;;1.30;;
70707;SDS011;58277;47.316;18.908;2023-02-01T01:31:21;3.97;;;1.30;;
70707;SDS011;58277;47.316;18.908;2023-02-01T01:33:47;3.63;;;0.90;;
70707;SDS011;58277;47.316;18.908;2023-02-01T01:36:11;3.55;;;1.20;;
70707;SDS011;58277;47.316;18.908;2023-02-01T01:38:35;4.28;;;1.10;;
70707;SDS011;58277;47.316;18.908;2023-02-01T01:40:57;3.38;;;1.30;;
70707;SDS011;58277;47.316;18.908;2023-02-01T01:43:20;3.20;;;1.10;;
70707;SDS011;58277;47.316;18.908;2023-02-01T01:45:48;3.58;;;1.10;;
70707;SDS011;58277;47.316;18.908;2023-02-01T01:48:14;3.92;;;1.10;;
70707;SDS011;58277;47.316;18.908;2023-02-01T01:50:46;3.55;;;1.10;;
70707;SDS011;58277;47.316;18.908;2023-02-01T01:53:24;3.50;;;1.40;;
70707;SDS011;58277;47.316;18.908;2023-02-01T01:55:50;4.20;;;1.17;;
70707;SDS011;58277;47.316;18.908;2023-02-01T01:58:17;2.80;;;1.00;;
70707;SDS011;58277;47.316;18.908;2023-02-01T02:00:41;5.13;;;1.27;;
70707;SDS011;58277;47.316;18.908;2023-02-01T02:05:52;3.03;;;1.15;;
70707;SDS011;58277;47.316;18.908;2023-02-01T02:08:18;3.20;;;1.00;;
70707;SDS011;58277;47.316;18.908;2023-02-01T02:10:42;3.50;;;1.25;;
70707;SDS011;58277;47.316;18.908;2023-02-01T02:13:25;3.60;;;1.38;;
70707;SDS011;58277;47.316;18.908;2023-02-01T02:16:47;4.03;;;1.30;;
70707;SDS011;58277;47.316;18.908;2023-02-01T02:21:42;3.90;;;1.20;;
70707;SDS011;58277;47.316;18.908;2023-02-01T02:27:09;3.78;;;1.33;;
70707;SDS011;58277;47.316;18.908;2023-02-01T02:38:30;3.22;;;1.42;;
70707;SDS011;58277;47.316;18.908;2023-02-01T02:41:21;3.53;;;1.33;;
70707;SDS011;58277;47.316;18.908;2023-02-01T02:47:26;2.92;;;1.40;;
70707;SDS011;58277;47.316;18.908;2023-02-01T02:49:58;3.07;;;1.30;;
70707;SDS011;58277;47.316;18.908;2023-02-01T02:55:59;4.53;;;1.48;;
70707;SDS011;58277;47.316;18.908;2023-02-01T02:58:43;2.53;;;1.33;;
70707;SDS011;58277;47.316;18.908;2023-02-01T03:01:27;3.00;;;1.27;;
70707;SDS011;58277;47.316;18.908;2023-02-01T03:04:10;2.50;;;1.20;;
70707;SDS011;58277;47.316;18.908;2023-02-01T03:06:38;4.18;;;1.33;;
70707;SDS011;58277;47.316;18.908;2023-02-01T03:09:01;3.80;;;1.65;;
70707;SDS011;58277;47.316;18.908;2023-02-01T03:11:28;2.90;;;1.33;;
70707;SDS011;58277;47.316;18.908;2023-02-01T03:14:13;3.53;;;1.52;;
70707;SDS011;58277;47.316;18.908;2023-02-01T03:16:49;3.70;;;1.70;;
70707;SDS011;58277;47.316;18.908;2023-02-01T03:21:53;2.92;;;1.40;;
70707;SDS011;58277;47.316;18.908;2023-02-01T03:24:23;3.42;;;1.60;;
70707;SDS011;58277;47.316;18.908;2023-02-01T03:27:01;4.88;;;1.60;;
70707;SDS011;58277;47.316;18.908;2023-02-01T03:29:29;4.10;;;1.40;;
70707;SDS011;58277;47.316;18.908;2023-02-01T03:31:59;3.72;;;1.38;;
70707;SDS011;58277;47.316;18.908;2023-02-01T03:34:22;3.75;;;1.58;;
70707;SDS011;58277;47.316;18.908;2023-02-01T03:36:49;3.33;;;1.48;;
70707;SDS011;58277;47.316;18.908;2023-02-01T03:41:53;3.07;;;1.20;;
70707;SDS011;58277;47.316;18.908;2023-02-01T03:44:23;2.95;;;1.23;;
70707;SDS011;58277;47.316;18.908;2023-02-01T03:46:57;3.33;;;1.80;;
70707;SDS011;58277;47.316;18.908;2023-02-01T03:49:32;4.20;;;1.70;;
70707;SDS011;58277;47.316;18.908;2023-02-01T03:52:04;2.85;;;1.45;;
70707;SDS011;58277;47.316;18.908;2023-02-01T03:54:31;3.23;;;1.40;;
70707;SDS011;58277;47.316;18.908;2023-02-01T03:56:55;3.65;;;1.85;;
70707;SDS011;58277;47.316;18.908;2023-02-01T03:59:21;4.40;;;1.90;;
70707;SDS011;58277;47.316;18.908;2023-02-01T04:01:44;3.83;;;1.83;;
70707;SDS011;58277;47.316;18.908;2023-02-01T04:04:07;3.70;;;1.73;;
70707;SDS011;58277;47.316;18.908;2023-02-01T04:06:32;3.87;;;1.67;;
70707;SDS011;58277;47.316;18.908;2023-02-01T04:08:57;4.20;;;1.98;;
70707;SDS011;58277;47.316;18.908;2023-02-01T04:11:20;3.50;;;1.90;;
70707;SDS011;58277;47.316;18.908;2023-02-01T04:13:43;6.05;;;1.63;;
70707;SDS011;58277;47.316;18.908;2023-02-01T04:16:06;3.95;;;1.90;;
70707;SDS011;58277;47.316;18.908;2023-02-01T04:18:29;3.70;;;1.70;;
70707;SDS011;58277;47.316;18.908;2023-02-01T04:20:51;3.80;;;1.60;;
70707;SDS011;58277;47.316;18.908;2023-02-01T04:23:14;3.70;;;1.70;;
70707;SDS011;58277;47.316;18.908;2023-02-01T04:25:37;4.70;;;1.80;;
70707;SDS011;58277;47.316;18.908;2023-02-01T04:28:00;3.95;;;1.65;;
70707;SDS011;58277;47.316;18.908;2023-02-01T04:30:23;2.93;;;1.43;;
70707;SDS011;58277;47.316;18.908;2023-02-01T04:32:46;3.38;;;1.67;;
70707;SDS011;58277;47.316;18.908;2023-02-01T04:35:09;3.75;;;1.63;;
70707;SDS011;58277;47.316;18.908;2023-02-01T04:37:32;3.90;;;1.90;;
70707;SDS011;58277;47.316;18.908;2023-02-01T04:39:55;3.90;;;1.63;;
70707;SDS011;58277;47.316;18.908;2023-02-01T04:42:18;4.00;;;1.60;;
70707;SDS011;58277;47.316;18.908;2023-02-01T04:44:40;4.22;;;1.88;;
70707;SDS011;58277;47.316;18.908;2023-02-01T04:47:04;4.60;;;1.70;;
70707;SDS011;58277;47.316;18.908;2023-02-01T04:49:26;3.40;;;1.60;;
70707;SDS011;58277;47.316;18.908;2023-02-01T04:51:49;4.95;;;1.88;;
70707;SDS011;58277;47.316;18.908;2023-02-01T04:54:11;5.10;;;1.90;;
70707;SDS011;58277;47.316;18.908;2023-02-01T04:56:34;3.60;;;1.63;;
70707;SDS011;58277;47.316;18.908;2023-02-01T04:58:57;4.28;;;1.92;;
70707;SDS011;58277;47.316;18.908;2023-02-01T05:01:19;4.32;;;2.00;;
70707;SDS011;58277;47.316;18.908;2023-02-01T05:03:42;4.22;;;2.00;;
70707;SDS011;58277;47.316;18.908;2023-02-01T05:06:05;4.13;;;1.67;;
70707;SDS011;58277;47.316;18.908;2023-02-01T05:08:27;3.88;;;1.70;;
70707;SDS011;58277;47.316;18.908;2023-02-01T05:10:51;3.67;;;1.90;;
70707;SDS011;58277;47.316;18.908;2023-02-01T05:13:13;6.00;;;2.10;;
70707;SDS011;58277;47.316;18.908;2023-02-01T05:15:55;4.40;;;1.98;;
70707;SDS011;58277;47.316;18.908;2023-02-01T05:18:18;5.13;;;2.10;;
70707;SDS011;58277;47.316;18.908;2023-02-01T05:20:41;4.32;;;2.10;;
70707;SDS011;58277;47.316;18.908;2023-02-01T05:23:03;6.28;;;2.10;;
70707;SDS011;58277;47.316;18.908;2023-02-01T05:25:26;4.28;;;1.88;;
70707;SDS011;58277;47.316;18.908;2023-02-01T05:27:49;3.78;;;1.88;;
70707;SDS011;58277;47.316;18.908;2023-02-01T05:30:12;4.70;;;1.97;;
70707;SDS011;58277;47.316;18.908;2023-02-01T05:32:35;4.63;;;2.08;;
70707;SDS011;58277;47.316;18.908;2023-02-01T05:34:57;4.07;;;2.20;;
70707;SDS011;58277;47.316;18.908;2023-02-01T05:37:20;4.68;;;2.00;;
70707;SDS011;58277;47.316;18.908;2023-02-01T05:39:43;5.05;;;2.47;;
70707;SDS011;58277;47.316;18.908;2023-02-01T05:42:05;4.30;;;2.13;;
70707;SDS011;58277;47.316;18.908;2023-02-01T05:44:28;5.43;;;2.25;;
70707;SDS011;58277;47.316;18.908;2023-02-01T05:46:50;5.60;;;2.03;;
70707;SDS011;58277;47.316;18.908;2023-02-01T05:49:14;4.47;;;2.10;;
70707;SDS011;58277;47.316;18.908;2023-02-01T05:51:37;5.28;;;2.30;;
70707;SDS011;58277;47.316;18.908;2023-02-01T05:53:59;5.67;;;2.23;;
70707;SDS011;58277;47.316;18.908;2023-02-01T05:56:22;4.43;;;2.20;;
70707;SDS011;58277;47.316;18.908;2023-02-01T05:58:45;4.97;;;2.63;;
70707;SDS011;58277;47.316;18.908;2023-02-01T06:01:08;6.75;;;2.92;;
70707;SDS011;58277;47.316;18.908;2023-02-01T06:03:30;7.90;;;3.10;;
70707;SDS011;58277;47.316;18.908;2023-02-01T06:05:53;5.83;;;2.90;;
70707;SDS011;58277;47.316;18.908;2023-02-01T06:08:16;5.95;;;2.90;;
70707;SDS011;58277;47.316;18.908;2023-02-01T06:10:39;5.78;;;2.85;;
70707;SDS011;58277;47.316;18.908;2023-02-01T06:13:02;5.28;;;2.75;;
70707;SDS011;58277;47.316;18.908;2023-02-01T06:15:25;5.25;;;2.83;;
70707;SDS011;58277;47.316;18.908;2023-02-01T06:17:48;6.40;;;2.43;;
70707;SDS011;58277;47.316;18.908;2023-02-01T06:20:11;8.95;;;3.45;;
70707;SDS011;58277;47.316;18.908;2023-02-01T06:22:35;6.70;;;3.08;;
70707;SDS011;58277;47.316;18.908;2023-02-01T06:24:58;7.38;;;3.00;;
70707;SDS011;58277;47.316;18.908;2023-02-01T06:27:21;6.82;;;3.50;;
70707;SDS011;58277;47.316;18.908;2023-02-01T06:29:44;7.07;;;3.30;;
70707;SDS011;58277;47.316;18.908;2023-02-01T06:32:07;9.27;;;3.30;;
70707;SDS011;58277;47.316;18.908;2023-02-01T06:34:29;6.93;;;3.20;;
70707;SDS011;58277;47.316;18.908;2023-02-01T06:36:52;6.68;;;2.92;;
70707;SDS011;58277;47.316;18.908;2023-02-01T06:39:17;6.63;;;3.17;;
70707;SDS011;58277;47.316;18.908;2023-02-01T06:41:40;6.57;;;3.00;;
70707;SDS011;58277;47.316;18.908;2023-02-01T06:44:03;6.30;;;2.60;;
70707;SDS011;58277;47.316;18.908;2023-02-01T06:46:26;5.68;;;2.80;;
70707;SDS011;58277;47.316;18.908;2023-02-01T06:48:49;6.00;;;2.95;;
70707;SDS011;58277;47.316;18.908;2023-02-01T06:51:20;6.30;;;2.80;;
70707;SDS011;58277;47.316;18.908;2023-02-01T06:53:51;6.17;;;2.70;;
70707;SDS011;58277;47.316;18.908;2023-02-01T06:56:14;5.97;;;3.00;;
70707;SDS011;58277;47.316;18.908;2023-02-01T06:58:37;6.05;;;2.90;;
70707;SDS011;58277;47.316;18.908;2023-02-01T07:01:04;5.80;;;2.65;;
70707;SDS011;58277;47.316;18.908;2023-02-01T07:03:29;5.60;;;2.90;;
70707;SDS011;58277;47.316;18.908;2023-02-01T07:05:54;5.73;;;2.63;;
70707;SDS011;58277;47.316;18.908;2023-02-01T07:08:19;6.13;;;2.72;;
70707;SDS011;58277;47.316;18.908;2023-02-01T07:10:41;6.85;;;2.83;;
70707;SDS011;58277;47.316;18.908;2023-02-01T07:13:04;5.60;;;2.80;;
70707;SDS011;58277;47.316;18.908;2023-02-01T07:15:27;6.47;;;3.03;;
70707;SDS011;58277;47.316;18.908;2023-02-01T07:17:50;7.00;;;3.10;;
70707;SDS011;58277;47.316;18.908;2023-02-01T07:20:13;6.15;;;3.00;;
70707;SDS011;58277;47.316;18.908;2023-02-01T07:25:40;7.03;;;3.28;;
70707;SDS011;58277;47.316;18.908;2023-02-01T07:28:03;7.15;;;3.65;;
70707;SDS011;58277;47.316;18.908;2023-02-01T07:30:25;5.43;;;3.07;;
70707;SDS011;58277;47.316;18.908;2023-02-01T07:32:48;6.65;;;3.13;;
70707;SDS011;58277;47.316;18.908;2023-02-01T07:35:11;6.40;;;3.20;;
70707;SDS011;58277;47.316;18.908;2023-02-01T07:37:34;6.88;;;3.20;;
70707;SDS011;58277;47.316;18.908;2023-02-01T07:39:57;7.60;;;3.38;;
70707;SDS011;58277;47.316;18.908;2023-02-01T07:42:22;5.10;;;2.50;;
70707;SDS011;58277;47.316;18.908;2023-02-01T07:44:45;5.20;;;2.63;;
70707;SDS011;58277;47.316;18.908;2023-02-01T07:47:07;6.15;;;2.80;;
70707;SDS011;58277;47.316;18.908;2023-02-01T07:49:30;6.20;;;2.80;;
70707;SDS011;58277;47.316;18.908;2023-02-01T07:51:53;7.15;;;3.63;;
70707;SDS011;58277;47.316;18.908;2023-02-01T07:54:16;7.33;;;3.73;;
70707;SDS011;58277;47.316;18.908;2023-02-01T07:56:39;7.00;;;3.50;;
70707;SDS011;58277;47.316;18.908;2023-02-01T07:59:02;7.03;;;3.60;;
70707;SDS011;58277;47.316;18.908;2023-02-01T08:01:25;4.97;;;2.35;;
70707;SDS011;58277;47.316;18.908;2023-02-01T08:03:50;4.13;;;2.20;;
70707;SDS011;58277;47.316;18.908;2023-02-01T08:06:17;3.97;;;2.40;;
70707;SDS011;58277;47.316;18.908;2023-02-01T08:08:42;5.22;;;2.28;;
70707;SDS011;58277;47.316;18.908;2023-02-01T08:11:07;4.18;;;1.95;;
70707;SDS011;58277;47.316;18.908;2023-02-01T08:13:30;4.38;;;2.10;;
70707;SDS011;58277;47.316;18.908;2023-02-01T08:15:57;4.30;;;2.00;;
70707;SDS011;58277;47.316;18.908;2023-02-01T08:18:24;3.07;;;1.80;;
70707;SDS011;58277;47.316;18.908;2023-02-01T08:20:47;5.10;;;2.10;;
70707;SDS011;58277;47.316;18.908;2023-02-01T08:23:10;7.55;;;3.00;;
70707;SDS011;58277;47.316;18.908;2023-02-01T08:25:33;5.63;;;2.42;;
70707;SDS011;58277;47.316;18.908;2023-02-01T08:27:57;3.88;;;2.10;;
70707;SDS011;58277;47.316;18.908;2023-02-01T08:30:20;3.80;;;1.97;;
70707;SDS011;58277;47.316;18.908;2023-02-01T08:32:44;4.65;;;1.95;;
70707;SDS011;58277;47.316;18.908;2023-02-01T08:35:07;4.18;;;2.10;;
70707;SDS011;58277;47.316;18.908;2023-02-01T08:37:31;4.68;;;2.20;;
70707;SDS011;58277;47.316;18.908;2023-02-01T08:39:54;4.05;;;2.05;;
70707;SDS011;58277;47.316;18.908;2023-02-01T08:42:17;5.90;;;2.00;;
70707;SDS011;58277;47.316;18.908;2023-02-01T08:44:59;4.00;;;2.00;;
70707;SDS011;58277;47.316;18.908;2023-02-01T08:47:21;4.10;;;2.13;;
70707;SDS011;58277;47.316;18.908;2023-02-01T08:49:45;5.10;;;1.95;;
70707;SDS011;58277;47.316;18.908;2023-02-01T08:52:08;5.30;;;2.25;;
70707;SDS011;58277;47.316;18.908;2023-02-01T08:54:37;12.57;;;2.80;;
70707;SDS011;58277;47.316;18.908;2023-02-01T08:57:02;6.13;;;2.80;;
70707;SDS011;58277;47.316;18.908;2023-02-01T08:59:26;5.35;;;2.70;;
70707;SDS011;58277;47.316;18.908;2023-02-01T09:01:51;4.82;;;2.30;;
70707;SDS011;58277;47.316;18.908;2023-02-01T09:04:14;3.83;;;2.10;;
70707;SDS011;58277;47.316;18.908;2023-02-01T09:06:39;4.43;;;2.10;;
70707;SDS011;58277;47.316;18.908;2023-02-01T09:09:03;4.55;;;2.25;;
70707;SDS011;58277;47.316;18.908;2023-02-01T09:11:26;5.60;;;2.35;;
70707;SDS011;58277;47.316;18.908;2023-02-01T09:13:52;4.72;;;2.20;;
70707;SDS011;58277;47.316;18.908;2023-02-01T09:16:14;3.97;;;2.50;;
70707;SDS011;58277;47.316;18.908;2023-02-01T09:18:39;4.33;;;2.30;;
70707;SDS011;58277;47.316;18.908;2023-02-01T09:21:23;4.40;;;2.33;;
70707;SDS011;58277;47.316;18.908;2023-02-01T09:23:46;4.70;;;2.42;;
70707;SDS011;58277;47.316;18.908;2023-02-01T09:26:10;4.28;;;2.15;;
70707;SDS011;58277;47.316;18.908;2023-02-01T09:28:36;4.60;;;2.17;;
70707;SDS011;58277;47.316;18.908;2023-02-01T09:30:59;6.27;;;2.07;;
70707;SDS011;58277;47.316;18.908;2023-02-01T09:33:23;4.78;;;2.25;;
70707;SDS011;58277;47.316;18.908;2023-02-01T09:35:47;5.72;;;2.20;;
70707;SDS011;58277;47.316;18.908;2023-02-01T09:38:09;5.85;;;2.60;;
70707;SDS011;58277;47.316;18.908;2023-02-01T09:40:33;4.28;;;2.40;;
70707;SDS011;58277;47.316;18.908;2023-02-01T09:45:32;5.35;;;2.67;;
70707;SDS011;58277;47.316;18.908;2023-02-01T09:48:13;4.63;;;2.60;;
70707;SDS011;58277;47.316;18.908;2023-02-01T09:50:46;5.45;;;2.33;;
70707;SDS011;58277;47.316;18.908;2023-02-01T09:53:17;6.00;;;3.17;;
70707;SDS011;58277;47.316;18.908;2023-02-01T09:55:47;5.13;;;2.70;;
70707;SDS011;58277;47.316;18.908;2023-02-01T10:00:39;5.55;;;2.83;;
70707;SDS011;58277;47.316;18.908;2023-02-01T10:03:12;4.53;;;2.40;;
70707;SDS011;58277;47.316;18.908;2023-02-01T10:08:40;5.57;;;2.80;;
70707;SDS011;58277;47.316;18.908;2023-02-01T10:14:15;5.78;;;2.72;;
70707;SDS011;58277;47.316;18.908;2023-02-01T10:22:10;7.37;;;3.40;;
70707;SDS011;58277;47.316;18.908;2023-02-01T10:24:43;5.68;;;2.92;;
70707;SDS011;58277;47.316;18.908;2023-02-01T10:29:45;5.25;;;3.00;;
70707;SDS011;58277;47.316;18.908;2023-02-01T10:32:17;5.10;;;2.90;;
70707;SDS011;58277;47.316;18.908;2023-02-01T10:34:45;6.93;;;3.63;;
70707;SDS011;58277;47.316;18.908;2023-02-01T10:39:49;6.50;;;3.10;;
70707;SDS011;58277;47.316;18.908;2023-02-01T10:42:20;6.82;;;2.95;;
70707;SDS011;58277;47.316;18.908;2023-02-01T10:44:46;8.90;;;4.60;;
70707;SDS011;58277;47.316;18.908;2023-02-01T10:47:10;6.93;;;3.50;;
70707;SDS011;58277;47.316;18.908;2023-02-01T10:55:28;6.80;;;2.90;;
70707;SDS011;58277;47.316;18.908;2023-02-01T10:57:58;6.90;;;3.92;;
70707;SDS011;58277;47.316;18.908;2023-02-01T11:00:26;5.37;;;3.00;;
70707;SDS011;58277;47.316;18.908;2023-02-01T11:02:51;5.95;;;2.90;;
70707;SDS011;58277;47.316;18.908;2023-02-01T11:05:14;6.32;;;3.38;;
70707;SDS011;58277;47.316;18.908;2023-02-01T11:07:39;5.47;;;3.08;;
70707;SDS011;58277;47.316;18.908;2023-02-01T11:10:09;5.63;;;2.70;;
70707;SDS011;58277;47.316;18.908;2023-02-01T11:13:11;4.87;;;2.63;;
70707;SDS011;58277;47.316;18.908;2023-02-01T11:15:38;6.93;;;3.08;;
70707;SDS011;58277;47.316;18.908;2023-02-01T11:18:19;8.25;;;4.03;;
70707;SDS011;58277;47.316;18.908;2023-02-01T11:20:47;5.00;;;2.63;;
70707;SDS011;58277;47.316;18.908;2023-02-01T11:23:15;4.82;;;2.80;;
70707;SDS011;58277;47.316;18.908;2023-02-01T11:25:39;6.30;;;3.23;;
70707;SDS011;58277;47.316;18.908;2023-02-01T11:28:10;6.13;;;3.05;;
70707;SDS011;58277;47.316;18.908;2023-02-01T11:30:38;5.80;;;3.10;;
70707;SDS011;58277;47.316;18.908;2023-02-01T11:33:03;5.38;;;2.70;;
70707;SDS011;58277;47.316;18.908;2023-02-01T11:35:28;4.85;;;2.47;;
70707;SDS011;58277;47.316;18.908;2023-02-01T11:37:54;5.57;;;2.40;;
70707;SDS011;58277;47.316;18.908;2023-02-01T11:42:54;5.75;;;2.72;;
70707;SDS011;58277;47.316;18.908;2023-02-01T11:45:19;5.32;;;2.65;;
70707;SDS011;58277;47.316;18.908;2023-02-01T11:47:46;4.97;;;2.60;;
70707;SDS011;58277;47.316;18.908;2023-02-01T11:50:15;5.13;;;2.80;;
70707;SDS011;58277;47.316;18.908;2023-02-01T11:58:43;8.63;;;3.50;;
70707;SDS011;58277;47.316;18.908;2023-02-01T12:07:02;6.15;;;2.30;;
70707;SDS011;58277;47.316;18.908;2023-02-01T12:09:42;4.97;;;2.47;;
70707;SDS011;58277;47.316;18.908;2023-02-01T12:23:21;5.07;;;2.40;;
70707;SDS011;58277;47.316;18.908;2023-02-01T12:26:21;4.55;;;2.20;;
70707;SDS011;58277;47.316;18.908;2023-02-01T12:29:27;5.43;;;2.55;;
70707;SDS011;58277;47.316;18.908;2023-02-01T12:46:14;5.90;;;2.23;;
70707;SDS011;58277;47.316;18.908;2023-02-01T12:48:53;5.60;;;2.42;;
70707;SDS011;58277;47.316;18.908;2023-02-01T12:51:34;4.95;;;2.20;;
70707;SDS011;58277;47.316;18.908;2023-02-01T12:54:13;5.50;;;2.15;;
70707;SDS011;58277;47.316;18.908;2023-02-01T12:56:54;4.38;;;2.30;;
70707;SDS011;58277;47.316;18.908;2023-02-01T12:59:31;5.50;;;1.63;;
70707;SDS011;58277;47.316;18.908;2023-02-01T13:04:46;4.55;;;1.70;;
70707;SDS011;58277;47.316;18.908;2023-02-01T13:07:22;2.97;;;1.75;;
70707;SDS011;58277;47.316;18.908;2023-02-01T13:09:55;3.42;;;1.65;;
70707;SDS011;58277;47.316;18.908;2023-02-01T13:17:48;4.88;;;1.90;;
70707;SDS011;58277;47.316;18.908;2023-02-01T13:20:16;4.30;;;1.85;;
70707;SDS011;58277;47.316;18.908;2023-02-01T13:22:48;3.92;;;2.10;;
70707;SDS011;58277;47.316;18.908;2023-02-01T13:27:53;4.00;;;1.60;;
70707;SDS011;58277;47.316;18.908;2023-02-01T13:30:19;3.83;;;1.73;;
70707;SDS011;58277;47.316;18.908;2023-02-01T13:32:53;4.13;;;1.80;;
70707;SDS011;58277;47.316;18.908;2023-02-01T13:44:22;4.72;;;1.70;;
70707;SDS011;58277;47.316;18.908;2023-02-01T13:46:56;3.05;;;1.50;;
70707;SDS011;58277;47.316;18.908;2023-02-01T13:49:25;3.58;;;1.55;;
70707;SDS011;58277;47.316;18.908;2023-02-01T13:51:53;4.33;;;1.70;;
70707;SDS011;58277;47.316;18.908;2023-02-01T13:57:01;4.35;;;1.70;;
70707;SDS011;58277;47.316;18.908;2023-02-01T14:05:00;3.77;;;2.03;;
70707;SDS011;58277;47.316;18.908;2023-02-01T14:07:23;4.18;;;2.03;;
70707;SDS011;58277;47.316;18.908;2023-02-01T14:09:46;4.03;;;1.88;;
70707;SDS011;58277;47.316;18.908;2023-02-01T14:15:24;5.32;;;2.00;;
70707;SDS011;58277;47.316;18.908;2023-02-01T14:17:49;3.30;;;1.50;;
70707;SDS011;58277;47.316;18.908;2023-02-01T14:23:13;2.47;;;1.05;;
70707;SDS011;58277;47.316;18.908;2023-02-01T14:25:38;2.58;;;1.20;;
70707;SDS011;58277;47.316;18.908;2023-02-01T14:28:02;5.28;;;1.92;;
70707;SDS011;58277;47.316;18.908;2023-02-01T14:30:35;3.07;;;1.30;;
70707;SDS011;58277;47.316;18.908;2023-02-01T14:32:58;2.47;;;1.10;;
70707;SDS011;58277;47.316;18.908;2023-02-01T14:35:23;3.92;;;1.30;;
70707;SDS011;58277;47.316;18.908;2023-02-01T14:37:50;2.85;;;1.30;;
70707;SDS011;58277;47.316;18.908;2023-02-01T14:40:20;5.15;;;1.42;;
70707;SDS011;58277;47.316;18.908;2023-02-01T14:42:48;2.30;;;1.10;;
70707;SDS011;58277;47.316;18.908;2023-02-01T14:55:51;2.07;;;1.27;;
70707;SDS011;58277;47.316;18.908;2023-02-01T14:58:35;2.85;;;1.35;;
70707;SDS011;58277;47.316;18.908;2023-02-01T15:06:45;3.15;;;1.52;;
70707;SDS011;58277;47.316;18.908;2023-02-01T15:11:55;2.72;;;1.30;;
70707;SDS011;58277;47.316;18.908;2023-02-01T15:14:20;2.40;;;1.17;;
70707;SDS011;58277;47.316;18.908;2023-02-01T15:16:42;2.50;;;1.27;;
70707;SDS011;58277;47.316;18.908;2023-02-01T15:19:12;5.65;;;2.13;;
70707;SDS011;58277;47.316;18.908;2023-02-01T15:21:45;5.23;;;2.03;;
70707;SDS011;58277;47.316;18.908;2023-02-01T15:24:29;4.88;;;1.60;;
70707;SDS011;58277;47.316;18.908;2023-02-01T15:26:53;2.25;;;1.08;;
70707;SDS011;58277;47.316;18.908;2023-02-01T15:29:18;3.70;;;1.40;;
70707;SDS011;58277;47.316;18.908;2023-02-01T15:31:43;2.20;;;1.02;;
70707;SDS011;58277;47.316;18.908;2023-02-01T15:34:09;2.97;;;1.20;;
70707;SDS011;58277;47.316;18.908;2023-02-01T15:36:31;3.05;;;1.45;;
70707;SDS011;58277;47.316;18.908;2023-02-01T15:41:41;3.13;;;1.40;;
70707;SDS011;58277;47.316;18.908;2023-02-01T15:44:17;4.65;;;1.70;;
70707;SDS011;58277;47.316;18.908;2023-02-01T15:46:42;3.70;;;1.60;;
70707;SDS011;58277;47.316;18.908;2023-02-01T15:51:49;4.63;;;1.63;;
70707;SDS011;58277;47.316;18.908;2023-02-01T15:54:15;3.50;;;1.60;;
70707;SDS011;58277;47.316;18.908;2023-02-01T15:56:42;3.67;;;1.60;;
70707;SDS011;58277;47.316;18.908;2023-02-01T15:59:05;3.23;;;1.43;;
70707;SDS011;58277;47.316;18.908;2023-02-01T16:01:36;3.35;;;1.40;;
70707;SDS011;58277;47.316;18.908;2023-02-01T16:06:35;2.85;;;1.50;;
70707;SDS011;58277;47.316;18.908;2023-02-01T16:09:05;5.25;;;2.30;;
70707;SDS011;58277;47.316;18.908;2023-02-01T16:11:39;7.20;;;1.70;;
70707;SDS011;58277;47.316;18.908;2023-02-01T16:14:14;3.35;;;1.80;;
70707;SDS011;58277;47.316;18.908;2023-02-01T16:16:37;10.82;;;4.30;;
70707;SDS011;58277;47.316;18.908;2023-02-01T16:19:00;6.18;;;2.72;;
70707;SDS011;58277;47.316;18.908;2023-02-01T16:21:23;4.95;;;2.28;;
70707;SDS011;58277;47.316;18.908;2023-02-01T16:23:51;5.93;;;2.00;;
70707;SDS011;58277;47.316;18.908;2023-02-01T16:26:15;3.55;;;1.98;;
70707;SDS011;58277;47.316;18.908;2023-02-01T16:28:38;4.32;;;2.00;;
70707;SDS011;58277;47.316;18.908;2023-02-01T16:31:02;6.00;;;2.55;;
70707;SDS011;58277;47.316;18.908;2023-02-01T16:33:25;5.10;;;2.40;;
70707;SDS011;58277;47.316;18.908;2023-02-01T16:35:49;4.13;;;2.07;;
70707;SDS011;58277;47.316;18.908;2023-02-01T16:38:13;3.70;;;1.92;;
70707;SDS011;58277;47.316;18.908;2023-02-01T16:40:37;5.38;;;2.30;;
70707;SDS011;58277;47.316;18.908;2023-02-01T16:43:10;4.30;;;2.10;;
70707;SDS011;58277;47.316;18.908;2023-02-01T16:45:38;4.63;;;2.00;;
70707;SDS011;58277;47.316;18.908;2023-02-01T16:48:02;5.03;;;2.63;;
70707;SDS011;58277;47.316;18.908;2023-02-01T16:50:26;5.07;;;2.42;;
70707;SDS011;58277;47.316;18.908;2023-02-01T16:52:50;5.60;;;2.60;;
70707;SDS011;58277;47.316;18.908;2023-02-01T16:55:14;4.68;;;2.50;;
70707;SDS011;58277;47.316;18.908;2023-02-01T16:57:38;6.78;;;3.00;;
70707;SDS011;58277;47.316;18.908;2023-02-01T17:00:02;6.10;;;2.90;;
70707;SDS011;58277;47.316;18.908;2023-02-01T17:02:44;7.18;;;3.78;;
70707;SDS011;58277;47.316;18.908;2023-02-01T17:05:08;10.20;;;4.28;;
70707;SDS011;58277;47.316;18.908;2023-02-01T17:07:31;10.00;;;4.10;;
70707;SDS011;58277;47.316;18.908;2023-02-01T17:09:54;7.63;;;4.35;;